Time;durP1;ratioP1;P1;durP2;ratioP2;P2;SDS_P1;SDS_P2;PMS_P1;PMS_P2;Temp;Humidity;BMP_temperature;BMP_pressure;BME280_temperature;BME280_humidity;BME280_pressure;Samples;Min_cycle;Max_cycle;Signal;HPM_P1;HPM_P2
2021/12/16 00:33:10;;;;;;;;;;;;;;;-5.69;65.73;97338.19;6401219;27;19927;-64
2021/12/16 00:36:14;;;;;;;;;;;;;;;-5.85;66.83;97322.69;6401124;27;19930;-63
2021/12/16 00:39:27;;;;;;;;;;;;;;;-5.64;66.48;97305.72;6400940;27;19923;-63
2021/12/16 00:45:44;;;;;;;;;;;;;;;-5.99;66.98;97309.81;6400732;27;19923;-63
2021/12/16 00:49:06;;;;;;;;;;;;;;;-5.92;67.18;97302.13;6400797;27;19923;-63
2021/12/16 00:58:41;;;;;;;;;;;;;;;-6.02;67.40;97302.97;6400502;27;19923;-63
2021/12/16 01:01:55;;;;;;;;;;;;;;;-6.08;67.31;97291.84;6400518;27;19923;-63
2021/12/16 01:34:57;;;;;;;;;;;;;;;-6.20;67.40;97272.09;6399752;27;19930;-62
2021/12/16 01:50:43;;;;;;;;;;;;;;;-6.29;67.47;97261.78;6399373;27;19930;-63
2021/12/16 01:57:00;;;;;;;;;;;;;;;-6.25;68.17;97256.69;6399084;27;19923;-62
2021/12/16 02:00:08;;;;;;;;;;;;;;;-6.25;68.10;97254.13;6399019;27;19966;-62
2021/12/16 02:03:09;;;;;;;;;;;;;;;-6.37;68.56;97239.56;6398900;27;19929;-63
2021/12/16 02:06:26;;;;;;;;;;;;;;;-6.29;69.30;97254.09;6398748;27;20343;-63
2021/12/16 02:09:41;;;;;;;;;;;;;;;-6.21;68.36;97252.44;6380285;27;20336;-63
2021/12/16 02:13:14;;;;;;;;;;;;;;;-6.33;68.33;97256.63;6398796;27;19930;-64
2021/12/16 02:36:25;;;;;;;;;;;;;;;-5.96;67.01;97251.75;6366070;27;19930;-63
2021/12/16 02:39:28;;;;;;;;;;;;;;;-6.22;67.45;97254.16;6398016;27;19971;-62
2021/12/16 02:42:54;;;;;;;;;;;;;;;-6.14;67.42;97261.91;6397876;27;19927;-64
2021/12/16 02:49:13;;;;;;;;;;;;;;;-6.13;67.47;97250.81;6396305;27;19923;-64
2021/12/16 02:52:18;;;;;;;;;;;;;;;-6.38;68.29;97240.38;6397937;27;19923;-63
2021/12/16 02:55:21;;;;;;;;;;;;;;;-6.39;68.36;97231.00;6397073;27;19922;-63
2021/12/16 02:58:25;;;;;;;;;;;;;;;-6.51;68.95;97224.91;6396637;27;20299;-64
2021/12/16 03:01:40;;;;;;;;;;;;;;;-6.43;68.92;97226.69;6397412;27;19923;-63
2021/12/16 03:04:44;;;;;;;;;;;;;;;-6.24;68.59;97234.50;6397490;27;20461;-63
2021/12/16 03:07:46;;;;;;;;;;;;;;;-6.37;68.85;97223.31;6397394;27;19923;-63
2021/12/16 03:17:24;;;;;;;;;;;;;;;-6.24;67.95;97220.00;6397169;27;19923;-63
2021/12/16 03:20:50;;;;;;;;;;;;;;;-6.37;68.27;97213.94;6397369;27;20396;-64
2021/12/16 03:40:15;;;;;;;;;;;;;;;-6.69;69.10;97179.56;6395783;27;19923;-63
2021/12/16 03:43:19;;;;;;;;;;;;;;;-6.46;68.70;97178.00;6397108;27;19923;-63
2021/12/16 03:46:27;;;;;;;;;;;;;;;-6.62;69.15;97160.88;6396274;27;20300;-63
2021/12/16 03:49:28;;;;;;;;;;;;;;;-6.70;69.70;97159.94;6397010;27;19923;-65
2021/12/16 03:52:29;;;;;;;;;;;;;;;-6.64;69.42;97149.75;6396765;27;20380;-62
2021/12/16 03:55:33;;;;;;;;;;;;;;;-6.53;68.98;97153.25;6395760;27;19923;-63
2021/12/16 03:58:37;;;;;;;;;;;;;;;-6.66;68.80;97164.22;6396110;27;20406;-64
2021/12/16 04:01:38;;;;;;;;;;;;;;;-6.64;69.75;97158.28;6400573;27;19930;-64
2021/12/16 04:04:42;;;;;;;;;;;;;;;-6.61;69.84;97167.69;6401022;27;20288;-63
2021/12/16 04:07:46;;;;;;;;;;;;;;;-6.71;69.42;97158.22;6401443;27;19927;-63
2021/12/16 04:10:52;;;;;;;;;;;;;;;-6.79;70.44;97151.34;6401347;27;19923;-63
2021/12/16 04:13:59;;;;;;;;;;;;;;;-6.52;69.65;97157.50;6401391;27;19923;-64
2021/12/16 04:17:03;;;;;;;;;;;;;;;-6.36;69.18;97149.06;6400370;27;19930;-63
2021/12/16 04:20:06;;;;;;;;;;;;;;;-6.43;69.60;97147.31;6401341;27;19923;-64
2021/12/16 04:23:10;;;;;;;;;;;;;;;-6.54;70.06;97148.94;6401066;27;20376;-63
2021/12/16 04:26:11;;;;;;;;;;;;;;;-6.37;69.56;97147.38;6400331;27;20300;-63
2021/12/16 04:29:13;;;;;;;;;;;;;;;-6.35;69.42;97143.09;6400890;27;19926;-63
2021/12/16 04:32:16;;;;;;;;;;;;;;;-6.52;70.24;97141.28;6400414;27;20212;-64
2021/12/16 04:35:17;;;;;;;;;;;;;;;-6.45;69.75;97140.50;6400246;27;19987;-63
2021/12/16 04:38:23;;;;;;;;;;;;;;;-6.19;69.37;97138.91;6400747;27;19923;-63
2021/12/16 04:41:27;;;;;;;;;;;;;;;-6.18;69.34;97132.94;6400821;27;19945;-63
2021/12/16 04:44:31;;;;;;;;;;;;;;;-5.97;68.89;97142.44;6400874;27;20006;-63
2021/12/16 04:47:39;;;;;;;;;;;;;;;-5.97;68.53;97149.25;6400594;27;19923;-63
2021/12/16 04:50:42;;;;;;;;;;;;;;;-6.10;69.20;97133.84;6400505;27;19919;-63
2021/12/16 04:53:46;;;;;;;;;;;;;;;-5.87;69.10;97131.34;6399683;27;20307;-64
2021/12/16 04:56:50;;;;;;;;;;;;;;;-5.80;68.69;97128.78;6400152;27;19922;-63
2021/12/16 04:59:51;;;;;;;;;;;;;;;-5.76;68.80;97122.84;6399716;27;19930;-63
2021/12/16 05:02:56;;;;;;;;;;;;;;;-5.90;68.74;97113.38;6400414;27;19923;-64
2021/12/16 05:05:57;;;;;;;;;;;;;;;-5.78;69.73;97114.28;6399684;27;20398;-63
2021/12/16 05:09:01;;;;;;;;;;;;;;;-5.52;69.10;97119.47;6400203;27;19923;-64
2021/12/16 05:12:04;;;;;;;;;;;;;;;-5.42;68.75;97119.50;6398447;27;19922;-63
2021/12/16 05:15:07;;;;;;;;;;;;;;;-5.22;68.32;97118.69;6398569;27;19930;-64
2021/12/16 05:18:11;;;;;;;;;;;;;;;-5.05;67.86;97111.00;6398682;27;19929;-64
2021/12/16 05:21:26;;;;;;;;;;;;;;;-4.98;67.40;97107.59;6398509;27;19923;-62
2021/12/16 05:24:29;;;;;;;;;;;;;;;-4.85;66.25;97108.41;6399530;27;19942;-63
2021/12/16 05:27:36;;;;;;;;;;;;;;;-4.84;66.88;97099.84;6399825;27;19923;-63
2021/12/16 05:30:37;;;;;;;;;;;;;;;-4.80;67.13;97099.00;6399580;27;19919;-63
2021/12/16 05:33:41;;;;;;;;;;;;;;;-4.54;65.67;97081.00;6398943;27;19923;-64
2021/12/16 05:36:45;;;;;;;;;;;;;;;-4.43;65.40;97086.09;6398466;27;20323;-63
2021/12/16 05:39:46;;;;;;;;;;;;;;;-4.59;65.45;97087.84;6398315;27;19927;-63
2021/12/16 05:42:50;;;;;;;;;;;;;;;-4.49;65.91;97101.53;6399423;27;19962;-63
2021/12/16 05:45:55;;;;;;;;;;;;;;;-4.35;65.89;97080.09;6397936;27;20423;-63
2021/12/16 05:48:59;;;;;;;;;;;;;;;-4.40;65.67;97086.09;6398889;27;20316;-64
2021/12/16 05:52:00;;;;;;;;;;;;;;;-4.18;65.64;97077.47;6397586;27;20308;-63
2021/12/16 05:55:06;;;;;;;;;;;;;;;-3.76;63.88;97073.00;6398917;27;20308;-63
2021/12/16 05:58:15;;;;;;;;;;;;;;;-3.78;62.90;97086.72;6398652;27;20387;-64
2021/12/16 06:01:19;;;;;;;;;;;;;;;-3.89;63.32;97079.91;6397947;27;20013;-63
2021/12/16 06:04:25;;;;;;;;;;;;;;;-3.90;62.98;97077.34;6398414;27;19930;-64
2021/12/16 06:07:26;;;;;;;;;;;;;;;-3.91;63.00;97086.75;6397868;27;19933;-65
2021/12/16 06:27:13;;;;;;;;;;;;;;;-4.20;64.17;97063.75;6397404;27;20249;-64
2021/12/16 06:30:17;;;;;;;;;;;;;;;-4.25;64.56;97068.06;6397338;27;20296;-64
2021/12/16 06:33:22;;;;;;;;;;;;;;;-4.12;63.92;97062.03;6397152;27;20308;-63
2021/12/16 06:36:23;;;;;;;;;;;;;;;-3.91;63.16;97055.06;6397040;27;19929;-66
2021/12/16 06:39:30;;;;;;;;;;;;;;;-4.04;63.28;97053.44;6398056;27;19923;-65
2021/12/16 06:42:39;;;;;;;;;;;;;;;-4.15;64.02;97046.63;6397824;27;20355;-65
2021/12/16 06:45:48;;;;;;;;;;;;;;;-4.08;63.96;97045.75;6397985;27;19923;-64
2021/12/16 06:48:57;;;;;;;;;;;;;;;-4.02;63.86;97031.13;6397054;27;19973;-64
2021/12/16 06:52:02;;;;;;;;;;;;;;;-3.77;63.31;97030.13;6396702;27;19931;-63
2021/12/16 06:55:22;;;;;;;;;;;;;;;-3.91;63.10;97030.22;6397281;27;19923;-64
2021/12/16 06:58:32;;;;;;;;;;;;;;;-3.73;62.86;97016.41;6397131;27;19923;-63
2021/12/16 07:01:39;;;;;;;;;;;;;;;-3.66;62.57;97010.34;6396752;27;20403;-64
2021/12/16 07:04:43;;;;;;;;;;;;;;;-3.80;62.82;97007.00;6396741;27;19945;-63
2021/12/16 07:07:45;;;;;;;;;;;;;;;-3.69;63.10;97000.09;6396516;27;20300;-64
2021/12/16 07:10:48;;;;;;;;;;;;;;;-3.63;63.11;96994.03;6396521;27;19934;-64
2021/12/16 07:13:57;;;;;;;;;;;;;;;-3.66;62.77;96964.06;6396495;27;19976;-63
2021/12/16 07:16:59;;;;;;;;;;;;;;;-3.54;63.13;96954.53;6396403;27;19927;-63
2021/12/16 07:20:00;;;;;;;;;;;;;;;-3.45;63.09;96959.63;6395970;27;19923;-64
2021/12/16 07:23:03;;;;;;;;;;;;;;;-3.32;62.48;96968.09;6396049;27;20300;-63
2021/12/16 07:26:07;;;;;;;;;;;;;;;-3.42;63.11;96957.88;6394614;27;19923;-64
2021/12/16 07:29:08;;;;;;;;;;;;;;;-3.20;62.22;96948.25;6396059;27;19924;-62
2021/12/16 07:32:09;;;;;;;;;;;;;;;-3.22;62.00;96944.84;6397184;27;20256;-63
2021/12/16 07:35:15;;;;;;;;;;;;;;;-3.33;62.49;96931.22;6401761;27;19923;-63
2021/12/16 07:38:22;;;;;;;;;;;;;;;-3.20;62.27;96917.38;6402094;27;19923;-64
2021/12/16 07:41:31;;;;;;;;;;;;;;;-3.10;62.18;96914.69;6402234;27;19923;-64
2021/12/16 07:44:35;;;;;;;;;;;;;;;-3.07;61.81;96932.69;6401257;27;19923;-64
2021/12/16 07:47:39;;;;;;;;;;;;;;;-2.90;61.30;96928.19;6401561;27;19946;-64
2021/12/16 07:50:42;;;;;;;;;;;;;;;-2.90;61.36;96925.63;6400846;27;19970;-63
2021/12/16 07:53:44;;;;;;;;;;;;;;;-2.87;61.16;96935.03;6400712;27;19937;-64
2021/12/16 07:56:49;;;;;;;;;;;;;;;-2.91;60.84;96923.94;6400768;27;19923;-64
2021/12/16 07:59:51;;;;;;;;;;;;;;;-2.88;61.29;96918.75;6399958;27;19923;-64
2021/12/16 08:02:56;;;;;;;;;;;;;;;-2.52;59.67;96929.47;6401190;27;20017;-63
2021/12/16 08:06:05;;;;;;;;;;;;;;;-2.85;59.49;96929.00;6401281;27;19923;-64
2021/12/16 08:09:09;;;;;;;;;;;;;;;-2.94;59.74;96909.38;6400397;27;20276;-64
2021/12/16 08:12:12;;;;;;;;;;;;;;;-2.69;59.13;96928.81;6400025;27;19922;-65
2021/12/16 08:15:16;;;;;;;;;;;;;;;-2.87;59.52;96902.41;6400731;27;20013;-63
2021/12/16 08:18:17;;;;;;;;;;;;;;;-2.58;58.08;96926.97;6399948;27;20341;-64
2021/12/16 08:21:20;;;;;;;;;;;;;;;-2.67;58.38;96927.94;6400046;27;19933;-63
2021/12/16 08:24:21;;;;;;;;;;;;;;;-2.59;58.10;96925.28;6399620;27;19923;-64
2021/12/16 08:27:22;;;;;;;;;;;;;;;-2.72;58.14;96935.75;6399092;27;19923;-63
2021/12/16 08:30:26;;;;;;;;;;;;;;;-2.86;59.16;96914.44;6400044;27;19922;-64
2021/12/16 08:33:27;;;;;;;;;;;;;;;-2.80;58.39;96916.06;6399742;27;20392;-64
2021/12/16 08:36:29;;;;;;;;;;;;;;;-2.68;58.81;96907.38;6400162;27;19930;-63
2021/12/16 08:39:30;;;;;;;;;;;;;;;-2.97;59.60;96908.56;6399557;27;19929;-63
2021/12/16 08:42:31;;;;;;;;;;;;;;;-2.94;60.30;96908.53;6399530;27;19923;-63
2021/12/16 08:45:35;;;;;;;;;;;;;;;-2.83;59.98;96905.81;6398815;27;19919;-64
2021/12/16 08:48:36;;;;;;;;;;;;;;;-2.64;60.03;96898.72;6400133;27;19926;-64
2021/12/16 08:51:40;;;;;;;;;;;;;;;-2.50;59.89;96891.66;6399078;27;20068;-64
2021/12/16 08:54:43;;;;;;;;;;;;;;;-2.34;59.25;96875.13;6399861;27;19923;-64
2021/12/16 08:57:44;;;;;;;;;;;;;;;-2.26;59.25;96868.16;6399273;27;19930;-63
2021/12/16 09:00:49;;;;;;;;;;;;;;;-1.95;57.45;96844.47;6399552;27;19923;-63
2021/12/16 09:03:51;;;;;;;;;;;;;;;-2.14;56.62;96861.94;6399600;27;19946;-64
2021/12/16 09:06:53;;;;;;;;;;;;;;;-2.52;58.31;96839.31;6399079;27;19928;-63
2021/12/16 09:09:56;;;;;;;;;;;;;;;-2.56;58.54;96832.50;6399033;27;19923;-63
2021/12/16 09:13:03;;;;;;;;;;;;;;;-2.87;59.56;96838.06;6400150;27;20056;-64
2021/12/16 09:16:09;;;;;;;;;;;;;;;-2.72;59.68;96822.41;6399626;27;19927;-63
2021/12/16 09:19:10;;;;;;;;;;;;;;;-2.74;59.97;96811.28;6399304;27;19923;-64
2021/12/16 09:22:15;;;;;;;;;;;;;;;-2.75;59.87;96809.56;6399040;27;19923;-63
2021/12/16 09:25:19;;;;;;;;;;;;;;;-2.45;59.20;96807.44;6399870;27;19923;-63
2021/12/16 09:28:21;;;;;;;;;;;;;;;-2.60;59.66;96812.81;6398716;27;20403;-64
2021/12/16 09:31:23;;;;;;;;;;;;;;;-2.38;59.91;96821.91;6398381;27;19930;-63
2021/12/16 09:34:27;;;;;;;;;;;;;;;-2.31;57.69;96813.22;6399465;27;20395;-63
2021/12/16 09:37:31;;;;;;;;;;;;;;;-2.43;59.23;96813.44;6398370;27;20388;-64
2021/12/16 09:40:38;;;;;;;;;;;;;;;-2.02;58.11;96788.72;6398317;27;20029;-63
2021/12/16 09:43:41;;;;;;;;;;;;;;;-2.29;58.53;96793.44;6398681;27;20349;-64
2021/12/16 09:46:45;;;;;;;;;;;;;;;-2.41;58.78;96791.03;6398518;27;19930;-63
2021/12/16 09:49:46;;;;;;;;;;;;;;;-2.40;59.09;96791.91;6398271;27;19935;-63
2021/12/16 09:52:47;;;;;;;;;;;;;;;-2.75;60.53;96791.53;6398375;27;19923;-63
2021/12/16 09:55:58;;;;;;;;;;;;;;;-2.95;61.25;96793.53;6398031;27;19923;-64
2021/12/16 09:59:03;;;;;;;;;;;;;;;-2.90;61.35;96796.91;6397930;27;19923;-63
2021/12/16 10:02:07;;;;;;;;;;;;;;;-2.71;61.33;96798.34;6397129;27;20297;-63
2021/12/16 10:05:09;;;;;;;;;;;;;;;-2.60;60.95;96784.47;6397940;27;19922;-63
2021/12/16 10:08:10;;;;;;;;;;;;;;;-2.54;60.00;96776.66;6398028;27;19923;-64
2021/12/16 10:11:15;;;;;;;;;;;;;;;-2.74;59.78;96766.66;6398007;27;19923;-64
2021/12/16 10:17:33;;;;;;;;;;;;;;;-3.07;61.23;96778.25;6397144;27;20121;-63
2021/12/16 10:20:37;;;;;;;;;;;;;;;-3.17;61.73;96768.06;6398174;27;19927;-65
2021/12/16 10:23:40;;;;;;;;;;;;;;;-3.05;61.54;96776.50;6397428;27;19927;-64
2021/12/16 10:26:41;;;;;;;;;;;;;;;-3.31;62.22;96759.69;6397532;27;19929;-64
2021/12/16 10:29:47;;;;;;;;;;;;;;;-3.13;62.72;96758.59;6397581;27;20304;-64
2021/12/16 10:32:50;;;;;;;;;;;;;;;-3.02;62.61;96761.03;6397303;27;20007;-64
2021/12/16 10:35:59;;;;;;;;;;;;;;;-3.03;62.56;96761.88;6396569;27;19923;-63
2021/12/16 10:39:05;;;;;;;;;;;;;;;-3.31;63.42;96743.38;6397762;27;19923;-64
2021/12/16 10:42:17;;;;;;;;;;;;;;;-3.21;63.87;96750.94;6397996;27;20392;-65
2021/12/16 10:45:28;;;;;;;;;;;;;;;-3.47;64.72;96741.00;6397749;27;19922;-65
2021/12/16 10:48:36;;;;;;;;;;;;;;;-3.52;65.50;96757.34;6396699;27;19948;-64
2021/12/16 10:51:48;;;;;;;;;;;;;;;-3.31;64.76;96753.66;6396985;27;19923;-64
2021/12/16 10:54:50;;;;;;;;;;;;;;;-3.43;65.39;96754.66;6397020;27;20476;-63
2021/12/16 10:57:51;;;;;;;;;;;;;;;-3.59;66.17;96758.25;6396360;27;19930;-65
2021/12/16 11:00:52;;;;;;;;;;;;;;;-3.28;65.59;96739.06;6396649;27;19923;-64
2021/12/16 11:03:53;;;;;;;;;;;;;;;-3.45;65.44;96736.69;6396564;27;19949;-64
2021/12/16 11:07:00;;;;;;;;;;;;;;;-3.35;65.98;96732.25;6396361;27;20403;-65
2021/12/16 11:10:07;;;;;;;;;;;;;;;-3.40;66.19;96734.91;6396216;27;19930;-65
2021/12/16 11:13:10;;;;;;;;;;;;;;;-3.39;66.19;96722.91;6395961;27;20497;-64
2021/12/16 11:16:11;;;;;;;;;;;;;;;-3.33;66.21;96720.25;6396595;27;19923;-65
2021/12/16 11:19:32;;;;;;;;;;;;;;;-3.38;66.72;96715.13;6396365;27;19956;-65
2021/12/16 11:22:34;;;;;;;;;;;;;;;-3.52;66.80;96711.03;6395482;27;19930;-64
2021/12/16 11:25:38;;;;;;;;;;;;;;;-3.71;67.43;96712.97;6360804;27;20384;-65
2021/12/16 11:28:42;;;;;;;;;;;;;;;-3.52;67.65;96713.63;6396264;27;20060;-64
2021/12/16 11:31:49;;;;;;;;;;;;;;;-3.52;67.64;96708.47;6396025;27;20337;-64
2021/12/16 11:34:52;;;;;;;;;;;;;;;-3.40;67.38;96718.59;6396134;27;19923;-64
2021/12/16 11:37:53;;;;;;;;;;;;;;;-3.38;67.38;96714.28;6396372;27;20021;-64
2021/12/16 11:41:00;;;;;;;;;;;;;;;-3.47;67.51;96714.41;6395930;27;19922;-64
2021/12/16 11:44:01;;;;;;;;;;;;;;;-3.52;67.50;96713.63;6396094;27;19923;-66
2021/12/16 11:47:02;;;;;;;;;;;;;;;-3.71;68.09;96706.13;6396404;27;19930;-64
2021/12/16 11:50:05;;;;;;;;;;;;;;;-3.66;68.32;96719.75;6396202;27;19923;-63
2021/12/16 11:53:09;;;;;;;;;;;;;;;-3.51;68.64;96717.88;6395933;27;20452;-66
2021/12/16 11:56:11;;;;;;;;;;;;;;;-3.62;67.84;96706.03;6395478;27;19930;-63
2021/12/16 11:59:20;;;;;;;;;;;;;;;-3.76;69.04;96710.47;6395653;27;19927;-64
2021/12/16 12:02:24;;;;;;;;;;;;;;;-3.62;69.09;96698.31;6395565;27;19923;-64
2021/12/16 12:05:33;;;;;;;;;;;;;;;-3.59;68.75;96696.53;6395354;27;20296;-64
2021/12/16 12:08:36;;;;;;;;;;;;;;;-3.50;68.71;96686.16;6395045;27;19923;-64
2021/12/16 12:11:40;;;;;;;;;;;;;;;-3.37;68.29;96682.53;6395706;27;19919;-65
2021/12/16 12:14:42;;;;;;;;;;;;;;;-3.42;68.18;96692.06;6395031;27;19930;-64
2021/12/16 12:17:52;;;;;;;;;;;;;;;-3.60;68.50;96695.69;6396310;27;19923;-64
2021/12/16 12:21:13;;;;;;;;;;;;;;;-3.83;69.41;96688.25;6398143;27;19930;-64
2021/12/16 12:24:19;;;;;;;;;;;;;;;-3.77;69.72;96684.75;6400117;27;20347;-65
2021/12/16 12:27:26;;;;;;;;;;;;;;;-3.79;69.96;96677.09;6400226;27;20391;-63
2021/12/16 12:30:29;;;;;;;;;;;;;;;-3.58;69.71;96669.97;6400748;27;19923;-63
2021/12/16 12:33:30;;;;;;;;;;;;;;;-3.62;69.23;96662.31;6399870;27;20133;-64
2021/12/16 12:36:32;;;;;;;;;;;;;;;-3.57;69.32;96676.81;6399498;27;19970;-63
2021/12/16 12:39:38;;;;;;;;;;;;;;;-3.57;69.05;96669.94;6400206;27;19927;-64
2021/12/16 12:42:42;;;;;;;;;;;;;;;-3.42;68.98;96663.78;6400232;27;19923;-64
2021/12/16 12:45:43;;;;;;;;;;;;;;;-3.61;69.27;96658.84;6400188;27;19919;-64
2021/12/16 12:48:47;;;;;;;;;;;;;;;-3.57;69.28;96648.53;6399728;27;19930;-63
2021/12/16 12:51:52;;;;;;;;;;;;;;;-3.40;68.56;96641.44;6400235;27;19919;-63
2021/12/16 12:54:58;;;;;;;;;;;;;;;-3.56;68.67;96640.81;6400095;27;20007;-64
2021/12/16 12:58:11;;;;;;;;;;;;;;;-3.63;69.51;96640.00;6399828;27;20398;-64
2021/12/16 13:01:12;;;;;;;;;;;;;;;-3.65;69.42;96649.47;6399219;27;19930;-64
2021/12/16 13:04:21;;;;;;;;;;;;;;;-3.81;69.34;96639.41;6400124;27;20299;-63
2021/12/16 13:07:36;;;;;;;;;;;;;;;-3.53;69.53;96635.63;6399277;27;19930;-64
2021/12/16 13:10:41;;;;;;;;;;;;;;;-3.45;69.46;96602.09;6399934;27;20315;-64
2021/12/16 13:28:04;;;;;;;;;;;;;;;-3.65;69.55;96631.50;6399666;27;19930;-64
2021/12/16 13:31:38;;;;;;;;;;;;;;;-3.35;68.58;96618.22;6399570;27;19926;-65
2021/12/16 13:34:49;;;;;;;;;;;;;;;-3.32;67.62;96606.16;6397391;27;20285;-64
2021/12/16 13:37:55;;;;;;;;;;;;;;;-3.25;67.57;96605.22;6399845;27;19927;-64
2021/12/16 13:41:05;;;;;;;;;;;;;;;-3.39;67.38;96602.00;6398186;27;20014;-64
2021/12/16 13:44:12;;;;;;;;;;;;;;;-3.50;68.17;96619.28;6398402;27;19934;-64
2021/12/16 13:47:30;;;;;;;;;;;;;;;-3.58;68.52;96595.41;6399217;27;19923;-65
2021/12/16 14:01:27;;;;;;;;;;;;;;;-3.39;68.23;96591.69;6398587;27;20014;-64
2021/12/16 14:07:55;;;;;;;;;;;;;;;-3.36;67.19;96577.94;6397778;27;19927;-64
2021/12/16 14:10:57;;;;;;;;;;;;;;;-3.46;67.64;96575.47;6398095;27;19923;-65
2021/12/16 14:14:26;;;;;;;;;;;;;;;-3.45;67.12;96566.06;6397841;27;19927;-64
2021/12/16 14:18:14;;;;;;;;;;;;;;;-3.59;68.14;96578.25;6398408;27;19923;-63
2021/12/16 14:25:11;;;;;;;;;;;;;;;-3.50;67.67;96570.41;6398188;27;20428;-65
2021/12/16 14:31:59;;;;;;;;;;;;;;;-3.36;66.82;96555.63;6398107;27;19923;-65
2021/12/16 14:48:23;;;;;;;;;;;;;;;-3.58;67.61;96554.25;6397449;27;20384;-65
2021/12/16 14:51:29;;;;;;;;;;;;;;;-3.39;67.08;96541.09;6397857;27;19974;-64
2021/12/16 14:54:34;;;;;;;;;;;;;;;-3.55;67.89;96538.78;6397435;27;19923;-64
2021/12/16 14:57:42;;;;;;;;;;;;;;;-3.45;67.46;96528.31;6397092;27;20392;-66
2021/12/16 15:00:51;;;;;;;;;;;;;;;-3.46;67.35;96518.91;6397374;27;19923;-65
2021/12/16 15:03:53;;;;;;;;;;;;;;;-3.46;66.84;96523.19;6397441;27;20059;-64
2021/12/16 15:07:02;;;;;;;;;;;;;;;-3.53;67.10;96522.44;6396802;27;20330;-64
2021/12/16 15:10:04;;;;;;;;;;;;;;;-3.32;66.85;96521.25;6396666;27;19923;-64
2021/12/16 15:13:12;;;;;;;;;;;;;;;-3.42;66.80;96524.88;6396380;27;19923;-64
2021/12/16 15:16:46;;;;;;;;;;;;;;;-3.50;67.13;96521.56;6395787;27;19923;-64
2021/12/16 15:43:36;;;;;;;;;;;;;;;-3.70;67.87;96504.69;6396015;27;19923;-64
2021/12/16 15:46:38;;;;;;;;;;;;;;;-3.62;67.17;96502.03;6395945;27;19930;-65
2021/12/16 15:49:39;;;;;;;;;;;;;;;-3.60;67.05;96489.97;6395819;27;19923;-65
2021/12/16 15:52:46;;;;;;;;;;;;;;;-3.42;66.77;96488.84;6396644;27;19923;-65
2021/12/16 15:55:55;;;;;;;;;;;;;;;-3.45;66.71;96494.03;6398627;27;19929;-64
2021/12/16 15:59:05;;;;;;;;;;;;;;;-3.58;66.81;96485.66;6401558;27;19934;-64
2021/12/16 16:02:06;;;;;;;;;;;;;;;-3.75;67.12;96495.34;6401130;27;19926;-65
2021/12/16 16:05:13;;;;;;;;;;;;;;;-3.41;66.81;96496.53;6401430;27;19929;-65
2021/12/16 16:08:19;;;;;;;;;;;;;;;-3.36;66.25;96483.59;6401564;27;19930;-64
2021/12/16 16:11:23;;;;;;;;;;;;;;;-3.64;67.18;96484.03;6400789;27;19983;-65
2021/12/16 16:14:29;;;;;;;;;;;;;;;-3.46;67.18;96479.47;6401542;27;19933;-65
2021/12/16 16:17:43;;;;;;;;;;;;;;;-3.59;67.38;96490.81;6401457;27;20300;-64
2021/12/16 16:20:47;;;;;;;;;;;;;;;-3.68;67.73;96492.69;6400723;27;19923;-64
2021/12/16 16:24:08;;;;;;;;;;;;;;;-3.59;67.47;96490.81;6400391;27;19923;-65
2021/12/16 16:27:23;;;;;;;;;;;;;;;-3.45;67.04;96488.91;6385219;27;19923;-65
2021/12/16 16:30:26;;;;;;;;;;;;;;;-3.57;66.81;96494.22;6400618;27;19923;-65
2021/12/16 16:33:31;;;;;;;;;;;;;;;-3.64;67.58;96494.31;6401054;27;20006;-64
2021/12/16 16:36:38;;;;;;;;;;;;;;;-3.74;67.76;96497.03;6400086;27;19922;-64
2021/12/16 16:39:42;;;;;;;;;;;;;;;-3.78;68.08;96501.38;6401008;27;20406;-66
2021/12/16 16:42:44;;;;;;;;;;;;;;;-3.70;67.98;96499.56;6400274;27;19923;-66
2021/12/16 16:45:47;;;;;;;;;;;;;;;-3.35;67.08;96490.44;6400052;27;19927;-65
2021/12/16 16:51:58;;;;;;;;;;;;;;;-3.39;66.79;96504.22;6399507;27;20025;-64
2021/12/16 16:55:08;;;;;;;;;;;;;;;-3.51;67.08;96499.25;6399636;27;19922;-65
2021/12/16 16:58:14;;;;;;;;;;;;;;;-3.45;66.74;96494.03;6400504;27;19923;-65
2021/12/16 17:01:17;;;;;;;;;;;;;;;-3.64;67.38;96496.88;6399893;27;20421;-64
2021/12/16 17:04:20;;;;;;;;;;;;;;;-3.68;67.99;96497.81;6400517;27;19922;-66
2021/12/16 17:07:22;;;;;;;;;;;;;;;-3.51;67.62;96494.13;6398581;27;19966;-64
2021/12/16 17:10:23;;;;;;;;;;;;;;;-3.33;67.35;96493.84;6400344;27;19923;-65
2021/12/16 17:13:44;;;;;;;;;;;;;;;-3.32;66.65;96495.53;6398667;27;19930;-64
2021/12/16 17:17:30;;;;;;;;;;;;;;;-3.58;67.24;96500.25;6399428;27;20021;-64
2021/12/16 17:20:17;;;;;;;;;;;;;;;-3.68;67.76;96487.53;6390294;27;19923;-66
2021/12/16 17:23:21;;;;;;;;;;;;;;;-3.54;67.56;96487.28;6399838;27;20022;-65
2021/12/16 17:26:28;;;;;;;;;;;;;;;-3.31;67.10;96492.09;6399269;27;19923;-64
2021/12/16 17:29:35;;;;;;;;;;;;;;;-3.55;67.44;96479.63;6398996;27;19919;-65
2021/12/16 17:32:39;;;;;;;;;;;;;;;-3.53;67.08;96475.31;6380645;27;20403;-66
2021/12/16 17:35:46;;;;;;;;;;;;;;;-3.52;67.60;96489.84;6399727;27;20377;-66
2021/12/16 17:38:51;;;;;;;;;;;;;;;-3.33;66.13;96498.13;6399606;27;19922;-65
2021/12/16 17:41:53;;;;;;;;;;;;;;;-3.46;67.05;96487.19;6380240;27;19923;-64
2021/12/16 17:44:56;;;;;;;;;;;;;;;-3.34;67.09;96476.72;6380740;27;19929;-64
2021/12/16 17:48:03;;;;;;;;;;;;;;;-3.49;66.98;96461.50;6399626;27;20338;-65
2021/12/16 17:51:08;;;;;;;;;;;;;;;-3.49;66.95;96448.66;6398563;27;19923;-65
2021/12/16 17:54:10;;;;;;;;;;;;;;;-3.43;67.18;96451.13;6399273;27;19930;-66
2021/12/16 17:57:28;;;;;;;;;;;;;;;-3.77;67.95;96456.81;6399135;27;19923;-66
2021/12/16 18:00:36;;;;;;;;;;;;;;;-3.78;68.54;96457.69;6398626;27;19967;-65
2021/12/16 18:03:48;;;;;;;;;;;;;;;-3.64;68.27;96450.59;6398412;27;19923;-66
2021/12/16 18:07:00;;;;;;;;;;;;;;;-3.51;67.70;96440.09;6397882;27;19926;-65
2021/12/16 18:10:01;;;;;;;;;;;;;;;-3.69;68.05;96442.09;6398758;27;20330;-65
2021/12/16 18:13:06;;;;;;;;;;;;;;;-3.64;68.04;96442.88;6398564;27;19923;-66
2021/12/16 18:16:24;;;;;;;;;;;;;;;-3.74;68.40;96433.63;6398647;27;19923;-64
2021/12/16 18:19:36;;;;;;;;;;;;;;;-3.60;67.92;96438.53;6397535;27;19919;-65
2021/12/16 18:22:41;;;;;;;;;;;;;;;-3.47;67.51;96423.78;6398586;27;19927;-65
2021/12/16 18:25:45;;;;;;;;;;;;;;;-3.52;67.21;96441.00;6398404;27;20300;-65
2021/12/16 18:28:48;;;;;;;;;;;;;;;-4.01;67.88;96436.63;6398590;27;19923;-64
2021/12/16 18:31:49;;;;;;;;;;;;;;;-3.88;68.17;96443.25;6398268;27;19930;-65
2021/12/16 18:34:51;;;;;;;;;;;;;;;-3.88;68.66;96453.53;6397367;27;20447;-66
2021/12/16 18:37:55;;;;;;;;;;;;;;;-3.90;68.72;96465.59;6398346;27;19923;-65
2021/12/16 18:41:01;;;;;;;;;;;;;;;-3.81;68.34;96470.59;6398049;27;19930;-64
2021/12/16 18:44:08;;;;;;;;;;;;;;;-3.53;67.70;96470.16;6397466;27;20300;-65
2021/12/16 18:47:37;;;;;;;;;;;;;;;-3.75;68.03;96460.22;6398061;27;19923;-66
2021/12/16 18:51:14;;;;;;;;;;;;;;;-3.42;67.28;96468.28;6397471;27;20304;-65
2021/12/16 18:54:30;;;;;;;;;;;;;;;-3.50;67.09;96472.69;6396647;27;19930;-65
2021/12/16 18:57:34;;;;;;;;;;;;;;;-3.56;67.49;96454.78;6398097;27;19923;-64
2021/12/16 19:00:40;;;;;;;;;;;;;;;-3.65;67.80;96442.94;6397824;27;19923;-63
2021/12/16 19:03:45;;;;;;;;;;;;;;;-3.70;68.33;96437.84;6396981;27;19923;-64
2021/12/16 19:06:48;;;;;;;;;;;;;;;-3.72;68.38;96424.16;6397599;27;19923;-64
2021/12/16 19:09:53;;;;;;;;;;;;;;;-3.73;68.44;96432.75;6395388;27;20315;-64
2021/12/16 19:12:55;;;;;;;;;;;;;;;-3.73;68.25;96427.63;6397301;27;20363;-63
2021/12/16 19:15:56;;;;;;;;;;;;;;;-3.59;68.23;96387.94;6396757;27;20303;-65
2021/12/16 19:18:59;;;;;;;;;;;;;;;-3.64;68.03;96385.47;6396629;27;19927;-63
2021/12/16 19:22:05;;;;;;;;;;;;;;;-3.77;68.63;96407.97;6396938;27;19923;-64
2021/12/16 19:25:07;;;;;;;;;;;;;;;-3.55;67.42;96412.75;6396771;27;20023;-63
2021/12/16 19:28:11;;;;;;;;;;;;;;;-3.76;68.32;96432.81;6397502;27;19923;-64
2021/12/16 19:31:13;;;;;;;;;;;;;;;-3.66;68.37;96438.63;6402288;27;19923;-65
2021/12/16 19:34:16;;;;;;;;;;;;;;;-3.65;68.23;96448.06;6402012;27;19923;-64
2021/12/16 19:37:19;;;;;;;;;;;;;;;-3.79;68.73;96457.69;6402432;27;19923;-63
2021/12/16 19:40:26;;;;;;;;;;;;;;;-3.88;69.04;96467.28;6402317;27;20388;-64
2021/12/16 19:43:27;;;;;;;;;;;;;;;-3.58;69.00;96465.09;6401380;27;19927;-63
2021/12/16 19:46:31;;;;;;;;;;;;;;;-3.67;68.31;96458.38;6402326;27;20018;-64
2021/12/16 19:49:35;;;;;;;;;;;;;;;-3.46;67.54;96461.47;6402335;27;19923;-63
2021/12/16 19:52:38;;;;;;;;;;;;;;;-3.58;67.62;96456.53;6402339;27;20392;-63
2021/12/16 19:55:39;;;;;;;;;;;;;;;-3.75;68.30;96444.78;6402164;27;20355;-65
2021/12/16 19:58:43;;;;;;;;;;;;;;;-3.95;68.15;96433.97;6402203;27;19980;-64